sensor_id;sensor_type;location;lat;lon;timestamp;temperature;humidity
22698;DHT22;11516;51.612;7.510;2022-11-03T00:01:35;11.10;99.90
22698;DHT22;11516;51.612;7.510;2022-11-03T00:04:05;11.10;99.90
22698;DHT22;11516;51.612;7.510;2022-11-03T00:06:31;11.20;99.90
22698;DHT22;11516;51.612;7.510;2022-11-03T00:08:58;11.10;99.90
22698;DHT22;11516;51.612;7.510;2022-11-03T00:11:24;11.10;99.90
22698;DHT22;11516;51.612;7.510;2022-11-03T00:13:50;11.10;99.90
22698;DHT22;11516;51.612;7.510;2022-11-03T00:16:15;11.10;99.90
22698;DHT22;11516;51.612;7.510;2022-11-03T00:18:41;11.10;99.90
22698;DHT22;11516;51.612;7.510;2022-11-03T00:21:09;11.00;99.90
22698;DHT22;11516;51.612;7.510;2022-11-03T00:23:36;11.00;99.90
22698;DHT22;11516;51.612;7.510;2022-11-03T00:26:26;11.00;99.90
22698;DHT22;11516;51.612;7.510;2022-11-03T00:28:54;11.00;99.90
22698;DHT22;11516;51.612;7.510;2022-11-03T00:31:25;11.00;99.90
22698;DHT22;11516;51.612;7.510;2022-11-03T00:33:52;11.00;99.90
22698;DHT22;11516;51.612;7.510;2022-11-03T00:36:29;11.00;99.90
22698;DHT22;11516;51.612;7.510;2022-11-03T00:38:55;10.90;99.90
22698;DHT22;11516;51.612;7.510;2022-11-03T00:41:21;10.90;99.90
22698;DHT22;11516;51.612;7.510;2022-11-03T00:43:48;10.90;99.90
22698;DHT22;11516;51.612;7.510;2022-11-03T00:46:14;10.90;99.90
22698;DHT22;11516;51.612;7.510;2022-11-03T00:48:40;11.00;99.90
22698;DHT22;11516;51.612;7.510;2022-11-03T00:51:26;11.00;99.90
22698;DHT22;11516;51.612;7.510;2022-11-03T00:53:59;10.90;99.90
22698;DHT22;11516;51.612;7.510;2022-11-03T00:56:33;10.80;99.90
22698;DHT22;11516;51.612;7.510;2022-11-03T00:59:00;10.80;99.90
22698;DHT22;11516;51.612;7.510;2022-11-03T01:01:34;10.80;99.90
22698;DHT22;11516;51.612;7.510;2022-11-03T01:04:00;10.80;99.90
22698;DHT22;11516;51.612;7.510;2022-11-03T01:06:47;10.80;99.90
22698;DHT22;11516;51.612;7.510;2022-11-03T01:09:20;10.80;99.90
22698;DHT22;11516;51.612;7.510;2022-11-03T01:14:26;11.00;99.90
22698;DHT22;11516;51.612;7.510;2022-11-03T01:16:51;11.20;99.90
22698;DHT22;11516;51.612;7.510;2022-11-03T01:19:17;11.30;99.90
22698;DHT22;11516;51.612;7.510;2022-11-03T01:21:43;11.40;99.90
22698;DHT22;11516;51.612;7.510;2022-11-03T01:24:08;11.50;99.90
22698;DHT22;11516;51.612;7.510;2022-11-03T01:26:34;11.60;99.90
22698;DHT22;11516;51.612;7.510;2022-11-03T01:29:00;11.80;99.90
22698;DHT22;11516;51.612;7.510;2022-11-03T01:31:26;11.90;99.90
22698;DHT22;11516;51.612;7.510;2022-11-03T01:33:53;12.00;99.90
22698;DHT22;11516;51.612;7.510;2022-11-03T01:36:19;12.00;99.90
22698;DHT22;11516;51.612;7.510;2022-11-03T01:38:45;12.00;99.90
22698;DHT22;11516;51.612;7.510;2022-11-03T01:41:19;12.00;99.90
22698;DHT22;11516;51.612;7.510;2022-11-03T01:43:51;12.00;99.90
22698;DHT22;11516;51.612;7.510;2022-11-03T01:46:28;12.00;99.90
22698;DHT22;11516;51.612;7.510;2022-11-03T01:49:04;12.00;99.90
22698;DHT22;11516;51.612;7.510;2022-11-03T01:51:33;12.10;99.90
22698;DHT22;11516;51.612;7.510;2022-11-03T01:54:05;12.10;99.90
22698;DHT22;11516;51.612;7.510;2022-11-03T01:56:32;12.10;99.90
22698;DHT22;11516;51.612;7.510;2022-11-03T01:58:59;12.20;99.90
22698;DHT22;11516;51.612;7.510;2022-11-03T02:01:25;12.20;99.90
22698;DHT22;11516;51.612;7.510;2022-11-03T02:03:55;12.30;99.90
22698;DHT22;11516;51.612;7.510;2022-11-03T02:06:22;12.20;99.90
22698;DHT22;11516;51.612;7.510;2022-11-03T02:09:02;12.20;99.90
22698;DHT22;11516;51.612;7.510;2022-11-03T02:11:29;12.20;99.90
22698;DHT22;11516;51.612;7.510;2022-11-03T02:14:13;12.20;99.90
22698;DHT22;11516;51.612;7.510;2022-11-03T02:16:41;12.20;99.90
22698;DHT22;11516;51.612;7.510;2022-11-03T02:21:54;12.20;99.90
22698;DHT22;11516;51.612;7.510;2022-11-03T02:24:55;12.30;99.90
22698;DHT22;11516;51.612;7.510;2022-11-03T02:27:22;12.30;99.90
22698;DHT22;11516;51.612;7.510;2022-11-03T02:29:48;12.20;99.90
22698;DHT22;11516;51.612;7.510;2022-11-03T02:32:34;12.30;99.90
22698;DHT22;11516;51.612;7.510;2022-11-03T02:35:25;12.20;99.90
22698;DHT22;11516;51.612;7.510;2022-11-03T02:37:54;12.20;99.90
22698;DHT22;11516;51.612;7.510;2022-11-03T02:40:28;12.10;99.90
22698;DHT22;11516;51.612;7.510;2022-11-03T02:42:56;12.00;99.90
22698;DHT22;11516;51.612;7.510;2022-11-03T02:45:24;12.00;99.90
22698;DHT22;11516;51.612;7.510;2022-11-03T02:47:53;12.00;99.90
22698;DHT22;11516;51.612;7.510;2022-11-03T02:50:19;12.10;99.90
22698;DHT22;11516;51.612;7.510;2022-11-03T02:52:47;12.00;99.90
22698;DHT22;11516;51.612;7.510;2022-11-03T02:58:07;12.00;99.90
22698;DHT22;11516;51.612;7.510;2022-11-03T03:05:53;12.00;99.90
22698;DHT22;11516;51.612;7.510;2022-11-03T03:08:22;12.00;99.90
22698;DHT22;11516;51.612;7.510;2022-11-03T03:10:50;12.00;99.90
22698;DHT22;11516;51.612;7.510;2022-11-03T03:13:18;12.00;99.90
22698;DHT22;11516;51.612;7.510;2022-11-03T03:16:06;11.90;99.90
22698;DHT22;11516;51.612;7.510;2022-11-03T03:19:00;12.00;99.90
22698;DHT22;11516;51.612;7.510;2022-11-03T03:21:32;12.00;99.90
22698;DHT22;11516;51.612;7.510;2022-11-03T03:24:07;11.90;99.90
22698;DHT22;11516;51.612;7.510;2022-11-03T03:26:41;11.90;99.90
22698;DHT22;11516;51.612;7.510;2022-11-03T03:29:21;11.90;99.90
22698;DHT22;11516;51.612;7.510;2022-11-03T03:31:54;11.90;99.90
22698;DHT22;11516;51.612;7.510;2022-11-03T03:34:21;11.90;99.90
22698;DHT22;11516;51.612;7.510;2022-11-03T03:36:48;11.80;99.90
22698;DHT22;11516;51.612;7.510;2022-11-03T03:39:17;11.80;99.90
22698;DHT22;11516;51.612;7.510;2022-11-03T03:41:45;11.80;99.90
22698;DHT22;11516;51.612;7.510;2022-11-03T03:44:11;11.80;99.90
22698;DHT22;11516;51.612;7.510;2022-11-03T03:46:42;11.80;99.90
22698;DHT22;11516;51.612;7.510;2022-11-03T03:49:09;11.80;99.90
22698;DHT22;11516;51.612;7.510;2022-11-03T03:51:35;11.80;99.90
22698;DHT22;11516;51.612;7.510;2022-11-03T03:54:04;11.70;99.90
22698;DHT22;11516;51.612;7.510;2022-11-03T03:56:51;11.70;99.90
22698;DHT22;11516;51.612;7.510;2022-11-03T03:59:18;11.70;99.90
22698;DHT22;11516;51.612;7.510;2022-11-03T04:01:44;11.60;99.90
22698;DHT22;11516;51.612;7.510;2022-11-03T04:04:12;11.70;99.90
22698;DHT22;11516;51.612;7.510;2022-11-03T04:06:38;11.90;99.90
22698;DHT22;11516;51.612;7.510;2022-11-03T04:09:03;11.80;99.90
22698;DHT22;11516;51.612;7.510;2022-11-03T04:11:29;11.90;99.90
22698;DHT22;11516;51.612;7.510;2022-11-03T04:14:13;11.80;99.90
22698;DHT22;11516;51.612;7.510;2022-11-03T04:16:57;11.80;99.90
22698;DHT22;11516;51.612;7.510;2022-11-03T04:19:41;11.80;99.90
22698;DHT22;11516;51.612;7.510;2022-11-03T04:22:29;11.80;99.90
22698;DHT22;11516;51.612;7.510;2022-11-03T04:24:57;11.80;99.90
22698;DHT22;11516;51.612;7.510;2022-11-03T04:27:30;11.80;99.90
22698;DHT22;11516;51.612;7.510;2022-11-03T04:32:28;11.80;99.90
22698;DHT22;11516;51.612;7.510;2022-11-03T04:34:53;11.70;99.90
22698;DHT22;11516;51.612;7.510;2022-11-03T04:37:19;11.80;99.90
22698;DHT22;11516;51.612;7.510;2022-11-03T04:39:44;11.80;99.90
22698;DHT22;11516;51.612;7.510;2022-11-03T04:42:17;11.90;99.90
22698;DHT22;11516;51.612;7.510;2022-11-03T04:44:44;11.90;99.90
22698;DHT22;11516;51.612;7.510;2022-11-03T04:47:12;11.90;99.90
22698;DHT22;11516;51.612;7.510;2022-11-03T04:49:38;11.80;99.90
22698;DHT22;11516;51.612;7.510;2022-11-03T04:52:15;11.90;99.90
22698;DHT22;11516;51.612;7.510;2022-11-03T04:54:42;11.90;99.90
22698;DHT22;11516;51.612;7.510;2022-11-03T04:57:10;11.80;99.90
22698;DHT22;11516;51.612;7.510;2022-11-03T04:59:37;11.90;99.90
22698;DHT22;11516;51.612;7.510;2022-11-03T05:02:08;11.90;99.90
22698;DHT22;11516;51.612;7.510;2022-11-03T05:04:36;11.90;99.90
22698;DHT22;11516;51.612;7.510;2022-11-03T05:07:01;12.10;99.90
22698;DHT22;11516;51.612;7.510;2022-11-03T05:09:29;12.00;99.90
22698;DHT22;11516;51.612;7.510;2022-11-03T05:11:55;12.10;99.90
22698;DHT22;11516;51.612;7.510;2022-11-03T05:14:25;12.10;99.90
22698;DHT22;11516;51.612;7.510;2022-11-03T05:16:52;12.20;99.90
22698;DHT22;11516;51.612;7.510;2022-11-03T05:19:32;12.10;99.90
22698;DHT22;11516;51.612;7.510;2022-11-03T05:21:59;12.20;99.90
22698;DHT22;11516;51.612;7.510;2022-11-03T05:24:26;12.10;99.90
22698;DHT22;11516;51.612;7.510;2022-11-03T05:26:53;12.20;99.90
22698;DHT22;11516;51.612;7.510;2022-11-03T05:29:25;12.20;99.90
22698;DHT22;11516;51.612;7.510;2022-11-03T05:31:52;12.10;99.90
22698;DHT22;11516;51.612;7.510;2022-11-03T05:34:32;12.10;99.90
22698;DHT22;11516;51.612;7.510;2022-11-03T05:39:43;12.10;99.90
22698;DHT22;11516;51.612;7.510;2022-11-03T05:44:49;12.20;99.90
22698;DHT22;11516;51.612;7.510;2022-11-03T05:47:37;12.00;99.90
22698;DHT22;11516;51.612;7.510;2022-11-03T05:50:24;12.00;99.90
22698;DHT22;11516;51.612;7.510;2022-11-03T05:52:52;12.00;99.90
22698;DHT22;11516;51.612;7.510;2022-11-03T05:55:39;11.90;99.90
22698;DHT22;11516;51.612;7.510;2022-11-03T05:58:34;11.90;99.90
22698;DHT22;11516;51.612;7.510;2022-11-03T06:01:02;11.90;99.90
22698;DHT22;11516;51.612;7.510;2022-11-03T06:03:30;12.00;99.90
22698;DHT22;11516;51.612;7.510;2022-11-03T06:05:59;11.90;99.90
22698;DHT22;11516;51.612;7.510;2022-11-03T06:08:35;11.90;99.90
22698;DHT22;11516;51.612;7.510;2022-11-03T06:11:02;11.90;99.90
22698;DHT22;11516;51.612;7.510;2022-11-03T06:13:34;11.80;99.90
22698;DHT22;11516;51.612;7.510;2022-11-03T06:18:55;12.00;99.90
22698;DHT22;11516;51.612;7.510;2022-11-03T06:21:23;12.00;99.90
22698;DHT22;11516;51.612;7.510;2022-11-03T06:23:50;12.10;99.90
22698;DHT22;11516;51.612;7.510;2022-11-03T06:26:26;12.10;99.90
22698;DHT22;11516;51.612;7.510;2022-11-03T06:28:53;12.10;99.90
22698;DHT22;11516;51.612;7.510;2022-11-03T06:31:27;12.20;99.90
22698;DHT22;11516;51.612;7.510;2022-11-03T06:33:54;12.30;99.90
22698;DHT22;11516;51.612;7.510;2022-11-03T06:36:26;12.20;99.90
22698;DHT22;11516;51.612;7.510;2022-11-03T06:38:56;12.20;99.90
22698;DHT22;11516;51.612;7.510;2022-11-03T06:41:27;12.30;99.90
22698;DHT22;11516;51.612;7.510;2022-11-03T06:43:54;12.30;99.90
22698;DHT22;11516;51.612;7.510;2022-11-03T06:46:29;12.40;99.90
22698;DHT22;11516;51.612;7.510;2022-11-03T06:48:58;12.40;99.90
22698;DHT22;11516;51.612;7.510;2022-11-03T06:51:26;12.40;99.90
22698;DHT22;11516;51.612;7.510;2022-11-03T06:53:54;12.60;99.90
22698;DHT22;11516;51.612;7.510;2022-11-03T06:56:24;12.50;99.90
22698;DHT22;11516;51.612;7.510;2022-11-03T06:58:51;12.50;99.90
22698;DHT22;11516;51.612;7.510;2022-11-03T07:01:21;12.50;99.90
22698;DHT22;11516;51.612;7.510;2022-11-03T07:03:49;12.50;99.90
22698;DHT22;11516;51.612;7.510;2022-11-03T07:06:20;12.60;99.90
22698;DHT22;11516;51.612;7.510;2022-11-03T07:08:59;12.70;99.90
22698;DHT22;11516;51.612;7.510;2022-11-03T07:11:27;12.70;99.90
22698;DHT22;11516;51.612;7.510;2022-11-03T07:14:12;12.70;99.90
22698;DHT22;11516;51.612;7.510;2022-11-03T07:16:44;12.70;99.90
22698;DHT22;11516;51.612;7.510;2022-11-03T07:19:51;12.70;99.90
22698;DHT22;11516;51.612;7.510;2022-11-03T07:22:21;12.80;99.90
22698;DHT22;11516;51.612;7.510;2022-11-03T07:24:50;12.80;99.90
22698;DHT22;11516;51.612;7.510;2022-11-03T07:27:28;12.80;99.90
22698;DHT22;11516;51.612;7.510;2022-11-03T07:29:58;12.90;99.90
22698;DHT22;11516;51.612;7.510;2022-11-03T07:32:30;12.90;99.90
22698;DHT22;11516;51.612;7.510;2022-11-03T07:35:23;12.80;99.90
22698;DHT22;11516;51.612;7.510;2022-11-03T07:37:51;12.90;99.90
22698;DHT22;11516;51.612;7.510;2022-11-03T07:40:24;13.00;99.90
22698;DHT22;11516;51.612;7.510;2022-11-03T07:42:58;13.00;99.90
22698;DHT22;11516;51.612;7.510;2022-11-03T07:45:53;13.10;99.90
22698;DHT22;11516;51.612;7.510;2022-11-03T07:50:54;13.10;99.90
22698;DHT22;11516;51.612;7.510;2022-11-03T07:55:53;13.20;99.90
22698;DHT22;11516;51.612;7.510;2022-11-03T07:58:32;13.10;99.90
22698;DHT22;11516;51.612;7.510;2022-11-03T08:00:59;13.20;99.90
22698;DHT22;11516;51.612;7.510;2022-11-03T08:03:45;13.20;99.90
22698;DHT22;11516;51.612;7.510;2022-11-03T08:06:12;13.20;99.90
22698;DHT22;11516;51.612;7.510;2022-11-03T08:08:40;13.30;99.90
22698;DHT22;11516;51.612;7.510;2022-11-03T08:11:06;13.50;99.90
22698;DHT22;11516;51.612;7.510;2022-11-03T08:13:32;13.40;99.90
22698;DHT22;11516;51.612;7.510;2022-11-03T08:15:58;13.50;99.90
22698;DHT22;11516;51.612;7.510;2022-11-03T08:18:24;13.50;99.90
22698;DHT22;11516;51.612;7.510;2022-11-03T08:20:49;13.70;99.90
22698;DHT22;11516;51.612;7.510;2022-11-03T08:23:15;13.70;99.90
22698;DHT22;11516;51.612;7.510;2022-11-03T08:25:41;13.80;99.90
22698;DHT22;11516;51.612;7.510;2022-11-03T08:28:07;13.80;99.90
22698;DHT22;11516;51.612;7.510;2022-11-03T08:30:32;14.00;99.90
22698;DHT22;11516;51.612;7.510;2022-11-03T08:32:59;14.00;99.90
22698;DHT22;11516;51.612;7.510;2022-11-03T08:35:24;14.20;99.90
22698;DHT22;11516;51.612;7.510;2022-11-03T08:37:52;14.20;99.90
22698;DHT22;11516;51.612;7.510;2022-11-03T08:40:18;14.30;99.90
22698;DHT22;11516;51.612;7.510;2022-11-03T08:42:43;14.30;99.90
22698;DHT22;11516;51.612;7.510;2022-11-03T08:45:09;14.30;99.90
22698;DHT22;11516;51.612;7.510;2022-11-03T08:47:36;14.40;99.90
22698;DHT22;11516;51.612;7.510;2022-11-03T08:50:02;14.50;99.90
22698;DHT22;11516;51.612;7.510;2022-11-03T08:52:28;14.40;99.90
22698;DHT22;11516;51.612;7.510;2022-11-03T08:54:55;14.50;99.90
22698;DHT22;11516;51.612;7.510;2022-11-03T08:57:20;14.50;99.90
22698;DHT22;11516;51.612;7.510;2022-11-03T08:59:46;14.50;99.90
22698;DHT22;11516;51.612;7.510;2022-11-03T09:02:12;14.50;99.90
22698;DHT22;11516;51.612;7.510;2022-11-03T09:04:37;14.50;99.90
22698;DHT22;11516;51.612;7.510;2022-11-03T09:07:03;14.70;99.90
22698;DHT22;11516;51.612;7.510;2022-11-03T09:09:29;14.80;99.90
22698;DHT22;11516;51.612;7.510;2022-11-03T09:11:54;14.70;99.90
22698;DHT22;11516;51.612;7.510;2022-11-03T09:14:20;14.70;99.90
22698;DHT22;11516;51.612;7.510;2022-11-03T09:16:46;14.70;99.90
22698;DHT22;11516;51.612;7.510;2022-11-03T09:19:11;14.80;99.90
22698;DHT22;11516;51.612;7.510;2022-11-03T09:21:37;14.80;99.90
22698;DHT22;11516;51.612;7.510;2022-11-03T09:24:02;14.90;99.90
22698;DHT22;11516;51.612;7.510;2022-11-03T09:26:28;14.90;99.90
22698;DHT22;11516;51.612;7.510;2022-11-03T09:28:54;15.10;99.90
22698;DHT22;11516;51.612;7.510;2022-11-03T09:31:19;15.20;99.90
22698;DHT22;11516;51.612;7.510;2022-11-03T09:33:45;15.20;99.90
22698;DHT22;11516;51.612;7.510;2022-11-03T09:36:13;15.40;99.90
22698;DHT22;11516;51.612;7.510;2022-11-03T09:38:41;15.20;99.90
22698;DHT22;11516;51.612;7.510;2022-11-03T09:41:07;15.40;99.90
22698;DHT22;11516;51.612;7.510;2022-11-03T09:43:33;15.50;99.90
22698;DHT22;11516;51.612;7.510;2022-11-03T09:45:59;15.60;99.90
22698;DHT22;11516;51.612;7.510;2022-11-03T09:48:25;15.60;99.90
22698;DHT22;11516;51.612;7.510;2022-11-03T09:50:52;15.70;99.90
22698;DHT22;11516;51.612;7.510;2022-11-03T09:53:18;15.60;99.90
22698;DHT22;11516;51.612;7.510;2022-11-03T09:55:45;15.80;99.90
22698;DHT22;11516;51.612;7.510;2022-11-03T09:58:15;15.80;99.90
22698;DHT22;11516;51.612;7.510;2022-11-03T10:00:41;15.80;99.90
22698;DHT22;11516;51.612;7.510;2022-11-03T10:03:11;15.90;99.90
22698;DHT22;11516;51.612;7.510;2022-11-03T10:05:38;15.90;99.90
22698;DHT22;11516;51.612;7.510;2022-11-03T10:08:15;15.90;99.90
22698;DHT22;11516;51.612;7.510;2022-11-03T10:10:43;15.90;99.90
22698;DHT22;11516;51.612;7.510;2022-11-03T10:13:11;15.90;99.90
22698;DHT22;11516;51.612;7.510;2022-11-03T10:15:42;16.00;99.90
22698;DHT22;11516;51.612;7.510;2022-11-03T10:18:11;15.90;99.90
22698;DHT22;11516;51.612;7.510;2022-11-03T10:20:37;15.80;99.90
22698;DHT22;11516;51.612;7.510;2022-11-03T10:23:02;15.90;99.90
22698;DHT22;11516;51.612;7.510;2022-11-03T10:25:35;15.90;99.90
22698;DHT22;11516;51.612;7.510;2022-11-03T10:28:22;16.00;99.90
22698;DHT22;11516;51.612;7.510;2022-11-03T10:30:58;16.10;99.90
22698;DHT22;11516;51.612;7.510;2022-11-03T10:36:04;16.00;99.90
22698;DHT22;11516;51.612;7.510;2022-11-03T10:38:33;16.10;99.90
22698;DHT22;11516;51.612;7.510;2022-11-03T10:41:24;16.20;99.90
22698;DHT22;11516;51.612;7.510;2022-11-03T10:46:32;16.20;99.90
22698;DHT22;11516;51.612;7.510;2022-11-03T10:51:37;16.10;99.90
22698;DHT22;11516;51.612;7.510;2022-11-03T10:54:05;16.10;99.90
22698;DHT22;11516;51.612;7.510;2022-11-03T10:56:36;16.10;99.90
22698;DHT22;11516;51.612;7.510;2022-11-03T10:59:04;16.10;99.90
22698;DHT22;11516;51.612;7.510;2022-11-03T11:01:31;16.00;99.90
22698;DHT22;11516;51.612;7.510;2022-11-03T11:03:56;16.10;99.90
22698;DHT22;11516;51.612;7.510;2022-11-03T11:06:45;16.00;99.90
22698;DHT22;11516;51.612;7.510;2022-11-03T11:09:23;16.10;99.90
22698;DHT22;11516;51.612;7.510;2022-11-03T11:14:51;16.20;99.90
22698;DHT22;11516;51.612;7.510;2022-11-03T11:20:18;16.10;99.90
22698;DHT22;11516;51.612;7.510;2022-11-03T11:22:48;16.30;99.90
22698;DHT22;11516;51.612;7.510;2022-11-03T11:25:14;16.30;99.90
22698;DHT22;11516;51.612;7.510;2022-11-03T11:32:59;16.20;99.90
22698;DHT22;11516;51.612;7.510;2022-11-03T11:40:58;16.20;99.90
22698;DHT22;11516;51.612;7.510;2022-11-03T11:43:26;16.00;99.90
22698;DHT22;11516;51.612;7.510;2022-11-03T11:51:38;16.20;99.90
22698;DHT22;11516;51.612;7.510;2022-11-03T11:54:10;16.40;99.90
22698;DHT22;11516;51.612;7.510;2022-11-03T11:56:48;16.90;99.90
22698;DHT22;11516;51.612;7.510;2022-11-03T11:59:21;17.40;99.90
22698;DHT22;11516;51.612;7.510;2022-11-03T12:01:52;17.70;99.90
22698;DHT22;11516;51.612;7.510;2022-11-03T12:04:26;17.90;99.90
22698;DHT22;11516;51.612;7.510;2022-11-03T12:09:30;19.00;97.90
22698;DHT22;11516;51.612;7.510;2022-11-03T12:11:59;19.30;96.60
22698;DHT22;11516;51.612;7.510;2022-11-03T12:14:34;20.10;93.00
22698;DHT22;11516;51.612;7.510;2022-11-03T12:19:52;21.20;88.40
22698;DHT22;11516;51.612;7.510;2022-11-03T12:24:55;20.60;84.50
22698;DHT22;11516;51.612;7.510;2022-11-03T12:29:58;21.00;82.70
22698;DHT22;11516;51.612;7.510;2022-11-03T12:32:24;20.90;83.00
22698;DHT22;11516;51.612;7.510;2022-11-03T12:34:50;21.30;81.60
22698;DHT22;11516;51.612;7.510;2022-11-03T12:37:21;21.00;81.00
22698;DHT22;11516;51.612;7.510;2022-11-03T12:39:46;20.70;82.70
22698;DHT22;11516;51.612;7.510;2022-11-03T12:42:12;19.80;83.90
22698;DHT22;11516;51.612;7.510;2022-11-03T12:44:38;18.90;87.20
22698;DHT22;11516;51.612;7.510;2022-11-03T12:47:03;18.50;88.50
22698;DHT22;11516;51.612;7.510;2022-11-03T12:49:29;18.50;90.40
22698;DHT22;11516;51.612;7.510;2022-11-03T12:51:55;19.00;87.80
22698;DHT22;11516;51.612;7.510;2022-11-03T12:54:32;19.40;86.10
22698;DHT22;11516;51.612;7.510;2022-11-03T12:56:58;19.60;85.90
22698;DHT22;11516;51.612;7.510;2022-11-03T12:59:24;19.70;84.80
22698;DHT22;11516;51.612;7.510;2022-11-03T13:01:53;19.50;86.10
22698;DHT22;11516;51.612;7.510;2022-11-03T13:04:23;19.20;86.40
22698;DHT22;11516;51.612;7.510;2022-11-03T13:06:53;18.50;87.70
22698;DHT22;11516;51.612;7.510;2022-11-03T13:09:18;18.10;90.10
22698;DHT22;11516;51.612;7.510;2022-11-03T13:11:53;18.30;90.40
22698;DHT22;11516;51.612;7.510;2022-11-03T13:14:38;19.10;90.40
22698;DHT22;11516;51.612;7.510;2022-11-03T13:17:03;19.90;85.70
22698;DHT22;11516;51.612;7.510;2022-11-03T13:19:29;20.20;85.00
22698;DHT22;11516;51.612;7.510;2022-11-03T13:21:54;19.60;87.30
22698;DHT22;11516;51.612;7.510;2022-11-03T13:24:20;19.30;88.30
22698;DHT22;11516;51.612;7.510;2022-11-03T13:26:45;18.20;90.60
22698;DHT22;11516;51.612;7.510;2022-11-03T13:29:11;18.10;91.30
22698;DHT22;11516;51.612;7.510;2022-11-03T13:31:36;18.10;92.20
22698;DHT22;11516;51.612;7.510;2022-11-03T13:34:02;17.70;92.20
22698;DHT22;11516;51.612;7.510;2022-11-03T13:36:27;17.60;92.90
22698;DHT22;11516;51.612;7.510;2022-11-03T13:38:53;17.40;93.20
22698;DHT22;11516;51.612;7.510;2022-11-03T13:41:18;17.30;94.10
22698;DHT22;11516;51.612;7.510;2022-11-03T13:43:44;17.20;94.70
22698;DHT22;11516;51.612;7.510;2022-11-03T13:46:09;17.20;95.80
22698;DHT22;11516;51.612;7.510;2022-11-03T13:48:37;17.10;95.70
22698;DHT22;11516;51.612;7.510;2022-11-03T13:51:02;17.10;95.70
22698;DHT22;11516;51.612;7.510;2022-11-03T13:53:28;17.00;96.30
22698;DHT22;11516;51.612;7.510;2022-11-03T13:55:53;17.00;96.30
22698;DHT22;11516;51.612;7.510;2022-11-03T13:58:19;16.90;96.70
22698;DHT22;11516;51.612;7.510;2022-11-03T14:00:44;16.90;97.70
22698;DHT22;11516;51.612;7.510;2022-11-03T14:03:10;17.00;98.00
22698;DHT22;11516;51.612;7.510;2022-11-03T14:05:35;17.00;97.70
22698;DHT22;11516;51.612;7.510;2022-11-03T14:08:01;16.90;97.20
22698;DHT22;11516;51.612;7.510;2022-11-03T14:10:26;16.70;97.60
22698;DHT22;11516;51.612;7.510;2022-11-03T14:12:52;16.90;98.00
22698;DHT22;11516;51.612;7.510;2022-11-03T14:15:18;16.70;98.30
22698;DHT22;11516;51.612;7.510;2022-11-03T14:17:43;16.70;98.70
22698;DHT22;11516;51.612;7.510;2022-11-03T14:20:10;16.70;98.90
22698;DHT22;11516;51.612;7.510;2022-11-03T14:22:36;16.70;99.30
22698;DHT22;11516;51.612;7.510;2022-11-03T14:25:03;16.70;98.70
22698;DHT22;11516;51.612;7.510;2022-11-03T14:27:28;16.60;99.40
22698;DHT22;11516;51.612;7.510;2022-11-03T14:29:54;16.60;99.30
22698;DHT22;11516;51.612;7.510;2022-11-03T14:32:20;16.60;99.90
22698;DHT22;11516;51.612;7.510;2022-11-03T14:34:46;16.50;99.30
22698;DHT22;11516;51.612;7.510;2022-11-03T14:37:12;16.40;99.60
22698;DHT22;11516;51.612;7.510;2022-11-03T14:39:38;16.40;99.50
22698;DHT22;11516;51.612;7.510;2022-11-03T14:42:05;16.40;99.90
22698;DHT22;11516;51.612;7.510;2022-11-03T14:44:35;16.40;99.90
22698;DHT22;11516;51.612;7.510;2022-11-03T14:47:02;16.30;99.90
22698;DHT22;11516;51.612;7.510;2022-11-03T14:49:29;16.30;99.90
22698;DHT22;11516;51.612;7.510;2022-11-03T14:51:55;16.30;99.90
22698;DHT22;11516;51.612;7.510;2022-11-03T14:54:25;16.20;99.90
22698;DHT22;11516;51.612;7.510;2022-11-03T14:56:51;16.10;99.90
22698;DHT22;11516;51.612;7.510;2022-11-03T14:59:17;16.20;99.90
22698;DHT22;11516;51.612;7.510;2022-11-03T15:01:43;16.10;99.90
22698;DHT22;11516;51.612;7.510;2022-11-03T15:04:08;16.10;99.90
22698;DHT22;11516;51.612;7.510;2022-11-03T15:06:34;16.00;99.90
22698;DHT22;11516;51.612;7.510;2022-11-03T15:09:00;16.00;99.90
22698;DHT22;11516;51.612;7.510;2022-11-03T15:11:26;16.00;99.90
22698;DHT22;11516;51.612;7.510;2022-11-03T15:13:51;16.00;99.90
22698;DHT22;11516;51.612;7.510;2022-11-03T15:16:19;15.90;99.90
22698;DHT22;11516;51.612;7.510;2022-11-03T15:18:45;16.00;99.90
22698;DHT22;11516;51.612;7.510;2022-11-03T15:21:11;16.00;99.90
22698;DHT22;11516;51.612;7.510;2022-11-03T15:23:37;15.90;99.90
22698;DHT22;11516;51.612;7.510;2022-11-03T15:26:03;15.90;99.90
22698;DHT22;11516;51.612;7.510;2022-11-03T15:28:28;15.80;99.90
22698;DHT22;11516;51.612;7.510;2022-11-03T15:30:54;15.80;99.90
22698;DHT22;11516;51.612;7.510;2022-11-03T15:33:20;15.90;99.90
22698;DHT22;11516;51.612;7.510;2022-11-03T15:35:57;15.70;99.90
22698;DHT22;11516;51.612;7.510;2022-11-03T15:38:42;15.80;99.90
22698;DHT22;11516;51.612;7.510;2022-11-03T15:41:37;15.80;99.90
22698;DHT22;11516;51.612;7.510;2022-11-03T15:44:22;15.50;99.90
22698;DHT22;11516;51.612;7.510;2022-11-03T15:46:55;15.40;99.90
22698;DHT22;11516;51.612;7.510;2022-11-03T15:49:26;15.20;99.90
22698;DHT22;11516;51.612;7.510;2022-11-03T15:52:01;15.20;99.90
22698;DHT22;11516;51.612;7.510;2022-11-03T15:54:42;15.20;99.90
22698;DHT22;11516;51.612;7.510;2022-11-03T15:57:08;15.30;99.90
22698;DHT22;11516;51.612;7.510;2022-11-03T15:59:33;15.20;99.90
22698;DHT22;11516;51.612;7.510;2022-11-03T16:01:59;15.20;99.90
22698;DHT22;11516;51.612;7.510;2022-11-03T16:04:27;15.30;99.90
22698;DHT22;11516;51.612;7.510;2022-11-03T16:06:52;15.30;99.90
22698;DHT22;11516;51.612;7.510;2022-11-03T16:09:18;15.30;99.90
22698;DHT22;11516;51.612;7.510;2022-11-03T16:11:43;15.40;99.90
22698;DHT22;11516;51.612;7.510;2022-11-03T16:14:09;15.40;99.90
22698;DHT22;11516;51.612;7.510;2022-11-03T16:16:34;15.10;99.90
22698;DHT22;11516;51.612;7.510;2022-11-03T16:19:00;15.10;99.90
22698;DHT22;11516;51.612;7.510;2022-11-03T16:21:25;15.00;99.90
22698;DHT22;11516;51.612;7.510;2022-11-03T16:23:53;15.00;99.90
22698;DHT22;11516;51.612;7.510;2022-11-03T16:26:18;14.80;99.90
22698;DHT22;11516;51.612;7.510;2022-11-03T16:28:46;14.90;99.90
22698;DHT22;11516;51.612;7.510;2022-11-03T16:31:11;14.80;99.90
22698;DHT22;11516;51.612;7.510;2022-11-03T16:33:37;14.90;99.90
22698;DHT22;11516;51.612;7.510;2022-11-03T16:36:03;14.90;99.90
22698;DHT22;11516;51.612;7.510;2022-11-03T16:38:28;14.70;99.90
22698;DHT22;11516;51.612;7.510;2022-11-03T16:40:54;14.60;99.90
22698;DHT22;11516;51.612;7.510;2022-11-03T16:43:19;14.50;99.90
22698;DHT22;11516;51.612;7.510;2022-11-03T16:45:45;14.40;99.90
22698;DHT22;11516;51.612;7.510;2022-11-03T16:48:10;14.30;99.90
22698;DHT22;11516;51.612;7.510;2022-11-03T16:50:36;14.10;99.90
22698;DHT22;11516;51.612;7.510;2022-11-03T16:53:01;13.90;99.90
22698;DHT22;11516;51.612;7.510;2022-11-03T16:55:27;13.80;99.90